Decoded Metar for KSKF (SAN ANTONIO in TX, USA) (IATA:SKF) | Meteo·Mobile Aviation Weather
aviador You're here:

KSKF Decoded Metar

SAN ANTONIO in TX, USA
Report Time2019-01-23 06:59:00
UTC Time2019-01-23 07:19:42
Flight Rules vfr VFR
Wind350° at 23 Gusting to 30 kt
W.Decomp.*RWY 33: 22.4 kt HW 5.2 kt RCW
W.Rank350° ranks 21
Current wind is above 350° avg. (7.8)
Visibility9999 m
Phenomena:Light Rain
Clouds:Overcast 085 Hf
Expected CloudBase > 2,800 ft AGL from Temp-Dew spread
Ceiling8,500 ft
Temp07°C (ISA -7)
Dew Point00°C (61% RH)
AAT-3.3°C
QNH1016 hPa
Density Alt-121 ft
Elevation689 ft
Report Wrong Elevation
Raw Report
SPECI KSKF 230659Z AUTO 35023G30KT 10SM -RA OVC085 07/00 A3001 RMK
AO2 RAB59 SLP161=

Extra information for KSKF:More info

Metar Taf Metar & Taf Last 4 Metars F.Rules Stats Wind Profile Meteogram Temp Stats Airport Information Weather charts Add Link Nearby VenuesMetar ALERT Operation Metar Decoded Social comments

AIRNAV info for KSKF